createdAt,value
2023-03-05T00:01:54.058Z,14.65
2023-03-05T00:06:07.099Z,17.70
2023-03-05T00:10:19.590Z,17.58
2023-03-05T00:14:32.190Z,24.42
2023-03-05T00:18:45.835Z,17.80
2023-03-05T00:22:58.402Z,20.00
2023-03-05T00:27:10.864Z,19.67
2023-03-05T00:31:31.333Z,24.42
2023-03-05T00:35:46.877Z,12.80
2023-03-05T00:40:10.728Z,26.70
2023-03-05T00:44:23.278Z,15.48
2023-03-05T00:48:35.754Z,12.50
2023-03-05T00:52:48.184Z,16.38
2023-03-05T00:57:00.629Z,13.57
2023-03-05T01:01:13.114Z,22.15
2023-03-05T01:05:25.554Z,22.85
2023-03-05T01:09:38.080Z,22.35
2023-03-05T01:13:50.619Z,24.98
2023-03-05T01:18:03.747Z,18.67
2023-03-05T01:22:16.159Z,20.00
2023-03-05T01:26:29.076Z,23.67
2023-03-05T01:30:49.880Z,19.67
2023-03-05T01:35:04.150Z,22.80
2023-03-05T01:39:20.144Z,20.48
2023-03-05T01:43:32.675Z,22.45
2023-03-05T01:47:46.225Z,19.58
2023-03-05T01:52:24.144Z,18.02
2023-03-05T01:56:37.871Z,22.75
2023-03-05T02:01:00.570Z,21.27
2023-03-05T02:05:27.913Z,30.40
2023-03-05T02:09:42.185Z,21.20
2023-03-05T02:13:54.624Z,26.88
2023-03-05T02:18:08.889Z,25.88
2023-03-05T02:22:24.905Z,27.13
2023-03-05T02:26:37.314Z,21.20
2023-03-05T02:30:50.236Z,30.52
2023-03-05T02:35:03.003Z,18.50
2023-03-05T02:39:15.442Z,37.22
2023-03-05T02:43:38.532Z,28.15
2023-03-05T02:47:51.003Z,16.27
2023-03-05T02:52:03.586Z,24.20
2023-03-05T02:56:16.462Z,24.17
2023-03-05T03:00:29.228Z,26.20
2023-03-05T03:04:41.840Z,23.83
2023-03-05T03:09:04.800Z,20.38
2023-03-05T03:13:17.820Z,27.35
2023-03-05T03:17:31.072Z,19.60
2023-03-05T03:21:43.535Z,25.40
2023-03-05T03:25:56.089Z,23.73
2023-03-05T03:30:18.741Z,23.92
2023-03-05T03:34:31.314Z,15.73
2023-03-05T03:38:43.865Z,26.42
2023-03-05T03:42:56.412Z,20.67
2023-03-05T03:47:08.877Z,17.85
2023-03-05T03:51:21.387Z,23.80
2023-03-05T03:55:47.267Z,24.52
2023-03-05T04:00:00.425Z,36.60
2023-03-05T04:04:14.369Z,20.20
2023-03-05T04:08:27.445Z,23.55
2023-03-05T04:12:39.918Z,20.25
2023-03-05T04:16:54.013Z,21.45
2023-03-05T04:21:07.322Z,15.95
2023-03-05T04:25:20.311Z,27.67
2023-03-05T04:29:34.618Z,21.80
2023-03-05T04:33:47.052Z,22.70
2023-03-05T04:38:09.409Z,30.90
2023-03-05T04:42:22.008Z,24.70
2023-03-05T04:46:34.534Z,26.80
2023-03-05T04:50:46.969Z,22.10
2023-03-05T04:54:59.574Z,25.70
2023-03-05T04:59:12.085Z,20.38
2023-03-05T05:03:24.511Z,24.92
2023-03-05T05:07:39.853Z,21.30
2023-03-05T05:11:53.126Z,26.10
2023-03-05T05:16:09.710Z,21.23
2023-03-05T05:20:22.220Z,18.55
2023-03-05T05:24:35.226Z,22.35
2023-03-05T05:28:47.725Z,23.45
2023-03-05T05:33:00.193Z,29.30
2023-03-05T05:37:13.090Z,27.38
2023-03-05T05:41:25.606Z,26.30
2023-03-05T05:45:41.688Z,32.67
2023-03-05T05:49:54.180Z,21.75
2023-03-05T05:54:07.034Z,33.40
2023-03-05T05:58:19.665Z,27.83
2023-03-05T06:02:32.219Z,31.90
2023-03-05T06:06:44.652Z,17.05
2023-03-05T06:10:57.191Z,27.85
2023-03-05T06:15:10.226Z,28.10
2023-03-05T06:19:22.684Z,27.38
2023-03-05T06:23:35.867Z,22.70
2023-03-05T06:27:48.298Z,13.45
2023-03-05T06:32:00.760Z,34.03
2023-03-05T06:36:16.919Z,21.90
2023-03-05T06:40:29.363Z,23.75
2023-03-05T06:44:42.758Z,19.42
2023-03-05T06:49:02.353Z,24.48
2023-03-05T06:53:14.796Z,30.15
2023-03-05T06:57:27.533Z,19.23
2023-03-05T07:01:40.200Z,23.67
2023-03-05T07:05:52.692Z,16.50
2023-03-05T07:10:08.251Z,20.35
2023-03-05T07:14:20.694Z,22.40
2023-03-05T07:18:33.101Z,26.00
2023-03-05T07:22:45.625Z,30.85
2023-03-05T07:26:58.334Z,23.50
2023-03-05T07:31:23.129Z,24.25
2023-03-05T07:35:35.582Z,23.65
2023-03-05T07:39:48.213Z,28.75
2023-03-05T07:44:00.893Z,34.33
2023-03-05T07:48:18.178Z,23.55
2023-03-05T07:52:30.784Z,22.27
2023-03-05T07:56:49.621Z,27.50
2023-03-05T08:01:02.112Z,29.17
2023-03-05T08:05:15.597Z,21.48
2023-03-05T08:09:29.172Z,26.00
2023-03-05T08:13:42.951Z,26.38
2023-03-05T08:17:55.441Z,20.60
2023-03-05T08:22:07.904Z,25.45
2023-03-05T08:26:23.337Z,21.63
2023-03-05T08:30:35.873Z,26.25
2023-03-05T08:34:48.421Z,20.95
2023-03-05T08:39:01.195Z,21.45
2023-03-05T08:43:13.662Z,26.05
2023-03-05T08:47:27.486Z,19.60
2023-03-05T08:51:39.967Z,19.60
2023-03-05T08:55:57.298Z,15.45
2023-03-05T09:00:11.248Z,18.90
2023-03-05T09:04:24.868Z,30.17
2023-03-05T09:08:37.881Z,29.38
2023-03-05T09:12:50.786Z,25.50
2023-03-05T09:17:03.475Z,25.08
2023-03-05T09:21:18.342Z,18.15
2023-03-05T09:25:30.807Z,21.38
2023-03-05T09:29:43.393Z,18.65
2023-03-05T09:33:55.883Z,23.25
2023-03-05T09:38:08.335Z,25.58
2023-03-05T09:42:49.729Z,22.52
2023-03-05T09:47:39.368Z,24.67
2023-03-05T09:52:01.724Z,25.23
2023-03-05T09:56:41.519Z,21.67
2023-03-05T10:01:20.472Z,17.58
2023-03-05T10:06:13.873Z,18.75
2023-03-05T10:10:40.644Z,22.38
2023-03-05T10:14:53.084Z,20.88
2023-03-05T10:19:45.961Z,23.55
2023-03-05T10:24:26.649Z,9.23
2023-03-05T10:28:57.789Z,26.45
2023-03-05T10:33:34.697Z,15.82
2023-03-05T10:38:49.070Z,15.38
2023-03-05T10:43:42.694Z,19.00
2023-03-05T10:48:12.737Z,28.05
2023-03-05T10:52:39.622Z,19.73
2023-03-05T10:57:21.414Z,19.15
2023-03-05T11:01:34.085Z,20.42
2023-03-05T11:06:02.332Z,21.30
2023-03-05T11:10:24.978Z,23.52
2023-03-05T11:14:42.028Z,28.13
2023-03-05T11:19:19.409Z,18.88
2023-03-05T11:23:31.919Z,20.70
2023-03-05T11:27:55.047Z,26.70
2023-03-05T11:32:37.127Z,21.77
2023-03-05T11:36:56.326Z,16.52
2023-03-05T11:41:11.389Z,16.40
2023-03-05T11:45:26.124Z,20.27
2023-03-05T11:49:48.720Z,18.52
2023-03-05T11:54:21.598Z,19.00
2023-03-05T11:58:53.989Z,20.88
2023-03-05T12:03:20.439Z,17.23
2023-03-05T12:07:41.082Z,22.02
2023-03-05T12:12:03.538Z,19.65
2023-03-05T12:16:26.912Z,18.25
2023-03-05T12:21:16.501Z,22.48
2023-03-05T12:25:34.082Z,16.58
2023-03-05T12:29:53.233Z,11.80
2023-03-05T12:34:43.153Z,23.77
2023-03-05T12:38:58.375Z,18.92
2023-03-05T12:43:34.421Z,8.70
2023-03-05T12:48:12.751Z,15.88
2023-03-05T12:52:28.402Z,16.80
2023-03-05T12:56:45.727Z,17.70
2023-03-05T13:01:28.648Z,21.83
2023-03-05T13:05:51.781Z,25.90
2023-03-05T13:10:04.378Z,18.27
2023-03-05T13:14:44.722Z,18.25
2023-03-05T13:19:01.942Z,19.15
2023-03-05T13:23:27.630Z,22.45
2023-03-05T13:27:40.175Z,17.25
2023-03-05T13:31:57.923Z,16.65
2023-03-05T13:36:17.128Z,15.95
2023-03-05T13:40:33.141Z,13.27
2023-03-05T13:45:24.208Z,21.10
2023-03-05T13:49:36.885Z,16.27
2023-03-05T13:53:59.326Z,24.92
2023-03-05T13:58:48.305Z,28.10
2023-03-05T14:03:15.501Z,18.48
2023-03-05T14:07:39.273Z,18.17
2023-03-05T14:11:57.388Z,24.95
2023-03-05T14:16:15.858Z,16.40
2023-03-05T14:20:32.460Z,31.65
2023-03-05T14:24:53.206Z,9.48
2023-03-05T14:29:18.363Z,26.45
2023-03-05T14:33:33.566Z,22.58
2023-03-05T14:37:50.220Z,20.05
2023-03-05T14:42:27.700Z,26.33
2023-03-05T14:46:41.072Z,24.17
2023-03-05T14:50:57.405Z,15.68
2023-03-05T14:55:20.572Z,15.93
2023-03-05T14:59:33.070Z,23.88
2023-03-05T15:03:46.166Z,19.23
2023-03-05T15:07:59.025Z,13.75
2023-03-05T15:12:17.202Z,15.93
2023-03-05T15:16:32.236Z,12.82
2023-03-05T15:20:53.823Z,12.32
2023-03-05T15:25:06.841Z,12.77
2023-03-05T15:29:19.397Z,15.57
2023-03-05T15:33:32.013Z,14.07
2023-03-05T15:37:44.488Z,12.80
2023-03-05T15:41:57.451Z,16.35
2023-03-05T15:46:19.965Z,13.00
2023-03-05T15:50:32.423Z,10.52
2023-03-05T15:54:44.938Z,16.67
2023-03-05T15:58:57.366Z,13.32
2023-03-05T16:03:09.941Z,8.90
2023-03-05T16:07:23.797Z,14.10
2023-03-05T16:11:39.319Z,11.75
2023-03-05T16:15:53.888Z,14.25
2023-03-05T16:20:07.388Z,14.48
2023-03-05T16:24:24.406Z,15.00
2023-03-05T16:28:37.616Z,11.35
2023-03-05T16:32:53.482Z,6.88
2023-03-05T16:37:07.652Z,6.72
2023-03-05T16:41:23.229Z,13.77
2023-03-05T16:45:38.329Z,12.90
2023-03-05T16:49:50.895Z,9.52
2023-03-05T16:54:04.585Z,10.27
2023-03-05T16:58:17.017Z,8.27
2023-03-05T17:02:29.544Z,11.15
2023-03-05T17:06:42.088Z,9.20
2023-03-05T17:10:54.934Z,7.82
2023-03-05T17:15:16.653Z,10.13
2023-03-05T17:19:29.290Z,11.55
2023-03-05T17:23:42.238Z,13.32
2023-03-05T17:27:54.866Z,11.48
2023-03-05T17:32:08.153Z,10.00
2023-03-05T17:36:21.999Z,8.80
2023-03-05T17:40:35.345Z,9.15
2023-03-05T17:49:02.206Z,10.20
2023-03-05T17:53:14.963Z,9.13
2023-03-05T17:57:27.514Z,7.25
2023-03-05T18:01:50.065Z,9.38
2023-03-05T18:06:12.626Z,9.07
2023-03-05T18:10:26.966Z,9.00
2023-03-05T18:14:40.254Z,10.02
2023-03-05T18:18:53.882Z,11.35
2023-03-05T18:23:06.951Z,9.77
2023-03-05T18:27:19.518Z,8.65
2023-03-05T18:31:32.041Z,10.85
2023-03-05T18:35:44.550Z,7.70
2023-03-05T18:39:58.703Z,9.98
2023-03-05T18:44:11.996Z,7.70
2023-03-05T18:48:24.525Z,9.48
2023-03-05T18:52:48.675Z,10.20
2023-03-05T18:57:01.183Z,10.07
2023-03-05T19:01:18.468Z,9.20
2023-03-05T19:05:31.103Z,9.95
2023-03-05T19:09:59.786Z,10.77
2023-03-05T19:14:12.465Z,13.55
2023-03-05T19:18:27.174Z,16.30
2023-03-05T19:22:39.614Z,11.02
2023-03-05T19:26:56.072Z,15.40
2023-03-05T19:31:09.372Z,9.43
2023-03-05T19:35:21.889Z,11.48
2023-03-05T19:39:35.234Z,11.50
2023-03-05T19:43:50.027Z,9.10
2023-03-05T19:48:02.632Z,8.18
2023-03-05T19:52:15.065Z,9.93
2023-03-05T19:56:27.666Z,16.95
2023-03-05T20:00:40.324Z,14.48
2023-03-05T20:04:55.769Z,12.55
2023-03-05T20:09:08.758Z,10.88
2023-03-05T20:13:21.235Z,14.50
2023-03-05T20:17:33.676Z,8.77
2023-03-05T20:21:56.080Z,9.00
2023-03-05T20:26:08.604Z,12.35
2023-03-05T20:30:21.301Z,19.25
2023-03-05T20:34:33.850Z,18.75
2023-03-05T20:38:47.501Z,16.83
2023-03-05T20:42:59.941Z,14.85
2023-03-05T20:47:33.060Z,16.58
2023-03-05T20:51:49.855Z,13.50
2023-03-05T20:56:02.321Z,16.10
2023-03-05T21:00:15.487Z,11.90
2023-03-05T21:04:28.032Z,8.18
2023-03-05T21:08:40.877Z,9.88
2023-03-05T21:12:55.303Z,8.95
2023-03-05T21:17:09.905Z,7.93
2023-03-05T21:21:22.374Z,7.82
2023-03-05T21:25:35.243Z,8.75
2023-03-05T21:29:47.793Z,8.98
2023-03-05T21:34:00.617Z,9.05
2023-03-05T21:38:14.829Z,12.85
2023-03-05T21:42:27.749Z,9.40
2023-03-05T21:46:41.040Z,9.77
2023-03-05T21:50:53.717Z,13.52
2023-03-05T21:55:07.566Z,8.30
2023-03-05T21:59:30.094Z,8.15
2023-03-05T22:03:42.729Z,9.60
2023-03-05T22:07:55.215Z,12.70
2023-03-05T22:12:11.064Z,10.63
2023-03-05T22:16:26.905Z,11.77
2023-03-05T22:20:39.575Z,10.15
2023-03-05T22:24:52.222Z,11.38
2023-03-05T22:29:05.587Z,9.38
2023-03-05T22:33:18.244Z,10.85
2023-03-05T22:37:31.722Z,8.68
2023-03-05T22:41:44.241Z,9.63
2023-03-05T22:45:56.718Z,7.88
2023-03-05T22:50:10.439Z,13.77
2023-03-05T22:54:32.916Z,9.75
2023-03-05T22:58:45.650Z,12.55
2023-03-05T23:02:58.203Z,10.25
2023-03-05T23:07:10.735Z,9.82
2023-03-05T23:11:23.245Z,9.02
2023-03-05T23:15:38.835Z,11.10
2023-03-05T23:19:51.302Z,11.25
2023-03-05T23:24:03.810Z,9.35
2023-03-05T23:28:16.295Z,13.55
2023-03-05T23:32:30.160Z,9.82
2023-03-05T23:36:43.061Z,10.52
2023-03-05T23:41:00.860Z,12.30
2023-03-05T23:45:16.367Z,8.60
2023-03-05T23:49:28.852Z,9.45
2023-03-05T23:53:41.870Z,9.52
2023-03-05T23:57:55.325Z,11.32
